Time;durP1;ratioP1;P1;durP2;ratioP2;P2;SDS_P1;SDS_P2;PMS_P1;PMS_P2;Temp;Humidity;BMP_temperature;BMP_pressure;BME280_temperature;BME280_humidity;BME280_pressure;Samples;Min_cycle;Max_cycle;Signal;HPM_P1;HPM_P2
2023/09/07 00:01:12;;;;;;;0.50;0.20;;;;;;;16.63;97.96;100585.75;5000056;28;20507;-48
2023/09/07 00:03:40;;;;;;;0.40;0.20;;;;;;;16.66;98.36;100583.78;5004743;28;20459;-48
2023/09/07 00:06:09;;;;;;;0.50;0.20;;;;;;;16.71;98.69;100579.06;5009066;28;20476;-49
2023/09/07 00:08:35;;;;;;;0.40;0.20;;;;;;;16.69;97.61;100582.78;5004496;28;20503;-48
2023/09/07 00:11:09;;;;;;;0.40;0.20;;;;;;;16.83;98.38;100577.59;5006977;28;20452;-49
2023/09/07 00:13:36;;;;;;;0.50;0.30;;;;;;;16.95;96.95;100578.81;5008945;28;20870;-48
2023/09/07 00:16:04;;;;;;;0.50;0.40;;;;;;;16.87;97.35;100579.22;4996488;28;20838;-49
2023/09/07 00:18:31;;;;;;;0.40;0.20;;;;;;;16.82;97.89;100584.78;5003843;28;20465;-48
2023/09/07 00:20:59;;;;;;;0.40;0.20;;;;;;;17.04;97.26;100581.03;4996647;28;20532;-48
2023/09/07 00:23:26;;;;;;;0.50;0.40;;;;;;;16.66;98.24;100585.59;5003390;28;20813;-49
2023/09/07 00:25:53;;;;;;;0.40;0.20;;;;;;;16.74;97.64;100576.25;5001391;28;21045;-48
2023/09/07 00:28:19;;;;;;;0.50;0.20;;;;;;;16.75;97.09;100580.69;5003571;28;20531;-48
2023/09/07 00:30:45;;;;;;;0.40;0.20;;;;;;;16.68;97.25;100583.72;5009373;28;20445;-48
2023/09/07 00:33:12;;;;;;;0.40;0.20;;;;;;;16.72;96.63;100585.31;5005088;28;20448;-48
2023/09/07 00:35:38;;;;;;;0.40;0.20;;;;;;;16.68;96.58;100586.41;4999596;28;20997;-48
2023/09/07 00:38:05;;;;;;;0.40;0.20;;;;;;;16.61;96.77;100591.19;5002371;28;20540;-49
2023/09/07 00:40:31;;;;;;;0.40;0.20;;;;;;;16.52;96.73;100587.13;5006055;28;20452;-49
2023/09/07 00:42:59;;;;;;;0.40;0.20;;;;;;;16.67;96.40;100581.97;5012851;28;20452;-48
2023/09/07 00:45:26;;;;;;;0.50;0.20;;;;;;;16.32;97.62;100579.19;4994992;28;20470;-48
2023/09/07 00:47:52;;;;;;;0.40;0.20;;;;;;;16.27;96.96;100590.09;5004060;28;20457;-48
2023/09/07 00:50:19;;;;;;;0.40;0.20;;;;;;;16.29;97.03;100590.91;4999639;28;20477;-48
2023/09/07 00:52:46;;;;;;;0.40;0.20;;;;;;;16.33;97.33;100582.72;5012558;28;20578;-49
2023/09/07 00:55:13;;;;;;;0.40;0.20;;;;;;;16.26;97.57;100579.44;5007696;28;20526;-48
2023/09/07 00:57:42;;;;;;;0.50;0.20;;;;;;;16.26;97.42;100580.31;5025585;28;20451;-48
2023/09/07 01:00:09;;;;;;;0.50;0.20;;;;;;;16.06;97.77;100579.53;4999534;28;20448;-49
2023/09/07 01:02:36;;;;;;;0.40;0.20;;;;;;;16.16;98.07;100579.00;4999375;28;20553;-48
2023/09/07 01:05:04;;;;;;;0.50;0.20;;;;;;;16.20;97.97;100575.25;5005651;28;20473;-48
2023/09/07 01:07:46;;;;;;;0.40;0.20;;;;;;;16.26;97.22;100574.09;5005648;28;20453;-48
2023/09/07 01:10:13;;;;;;;0.40;0.20;;;;;;;16.27;97.26;100575.81;5001934;28;20453;-47
2023/09/07 01:12:40;;;;;;;0.50;0.20;;;;;;;16.16;97.48;100570.97;4999188;28;20449;-48
2023/09/07 01:15:07;;;;;;;0.40;0.20;;;;;;;15.99;98.30;100569.06;5008830;28;20539;-49
2023/09/07 01:17:34;;;;;;;0.40;0.20;;;;;;;15.91;98.30;100573.06;4995703;28;20466;-49
2023/09/07 01:20:09;;;;;;;0.40;0.20;;;;;;;15.81;98.52;100572.63;5002528;28;20452;-49
2023/09/07 01:22:37;;;;;;;0.40;0.20;;;;;;;15.90;98.78;100566.84;4999093;28;20793;-48
2023/09/07 01:25:06;;;;;;;0.43;0.20;;;;;;;15.85;98.63;100567.97;5012242;28;20465;-48
2023/09/07 01:27:34;;;;;;;0.40;0.20;;;;;;;15.84;98.74;100566.22;4998901;28;20507;-48
2023/09/07 01:30:02;;;;;;;0.40;0.20;;;;;;;15.81;99.00;100575.28;5006998;28;20453;-48
2023/09/07 01:32:28;;;;;;;0.40;0.20;;;;;;;15.81;98.50;100566.38;4999250;28;20476;-48
2023/09/07 01:34:57;;;;;;;0.40;0.20;;;;;;;15.92;97.80;100574.81;5000979;28;20497;-48
2023/09/07 01:37:24;;;;;;;0.40;0.20;;;;;;;15.85;98.26;100570.66;5009549;28;20500;-49
2023/09/07 01:39:50;;;;;;;0.40;0.20;;;;;;;15.87;97.49;100566.09;5009056;28;20523;-48
2023/09/07 01:42:17;;;;;;;0.40;0.20;;;;;;;15.65;98.84;100561.72;5002645;28;20543;-49
2023/09/07 01:44:43;;;;;;;0.40;0.20;;;;;;;15.80;97.89;100554.78;5015669;28;20487;-49
2023/09/07 01:47:10;;;;;;;0.40;0.20;;;;;;;15.64;98.09;100559.97;4999824;28;20492;-49
2023/09/07 01:49:36;;;;;;;0.40;0.20;;;;;;;15.66;98.46;100560.78;5016197;28;20453;-48
2023/09/07 01:52:03;;;;;;;2.20;2.00;;;;;;;15.95;96.88;100566.63;5003085;28;20841;-48
2023/09/07 01:54:30;;;;;;;0.40;0.20;;;;;;;15.93;96.67;100564.00;5009956;28;20490;-49
2023/09/07 01:56:57;;;;;;;0.40;0.20;;;;;;;15.83;97.25;100565.38;5028051;28;20539;-48
2023/09/07 01:59:24;;;;;;;0.40;0.20;;;;;;;15.57;97.31;100561.16;5014752;28;20495;-48
2023/09/07 02:01:50;;;;;;;3.07;2.83;;;;;;;15.58;97.99;100559.34;5003845;28;20457;-49
2023/09/07 02:04:17;;;;;;;0.47;0.20;;;;;;;15.45;98.78;100558.13;5001064;28;20503;-48
2023/09/07 02:06:43;;;;;;;0.40;0.20;;;;;;;15.48;98.09;100555.31;5015596;28;20472;-49
2023/09/07 02:09:10;;;;;;;0.50;0.20;;;;;;;15.48;98.36;100555.31;5001330;28;20464;-48
2023/09/07 02:11:36;;;;;;;0.40;0.20;;;;;;;15.38;98.04;100560.25;5009402;28;20523;-49
2023/09/07 02:14:03;;;;;;;0.40;0.20;;;;;;;15.37;98.41;100562.03;5002189;28;20544;-49
2023/09/07 02:16:30;;;;;;;0.40;0.20;;;;;;;15.42;97.99;100564.50;5007930;28;20596;-48
2023/09/07 02:19:01;;;;;;;0.90;0.90;;;;;;;15.40;98.14;100563.72;5008829;28;20511;-48
2023/09/07 02:21:28;;;;;;;0.40;0.20;;;;;;;15.37;97.97;100564.72;4995628;28;20450;-48
2023/09/07 02:23:54;;;;;;;0.40;0.20;;;;;;;15.31;98.67;100558.75;5008501;28;20565;-48
2023/09/07 02:26:21;;;;;;;0.40;0.20;;;;;;;15.33;98.58;100557.75;5003828;28;20507;-48
2023/09/07 02:28:47;;;;;;;0.40;0.20;;;;;;;15.21;99.30;100571.66;5001824;28;20541;-48
2023/09/07 02:31:14;;;;;;;0.40;0.30;;;;;;;15.19;98.66;100557.47;5006342;28;20536;-48
2023/09/07 02:33:40;;;;;;;0.40;0.20;;;;;;;15.20;98.62;100561.00;5008339;28;20476;-49
2023/09/07 02:36:07;;;;;;;0.50;0.40;;;;;;;15.11;98.29;100557.81;5004755;28;20493;-48
2023/09/07 02:38:33;;;;;;;0.40;0.20;;;;;;;15.11;99.75;100559.63;5003002;28;20501;-49
2023/09/07 02:41:02;;;;;;;0.40;0.20;;;;;;;14.97;100.00;100552.19;5004939;28;20968;-48
2023/09/07 02:43:28;;;;;;;0.40;0.20;;;;;;;15.13;99.59;100549.72;4998984;28;20453;-47
2023/09/07 02:45:55;;;;;;;3.03;2.00;;;;;;;15.16;99.24;100554.06;5004868;28;20818;-48
2023/09/07 02:48:21;;;;;;;0.40;0.20;;;;;;;15.14;98.64;100554.13;5001604;28;20449;-48
2023/09/07 02:50:50;;;;;;;0.40;0.20;;;;;;;15.00;98.23;100552.03;5004333;28;20453;-48
2023/09/07 02:53:17;;;;;;;0.40;0.20;;;;;;;15.05;98.71;100555.38;5012254;28;21024;-48
2023/09/07 02:55:43;;;;;;;0.40;0.20;;;;;;;15.00;98.41;100553.84;5023330;28;20496;-48
2023/09/07 02:58:10;;;;;;;0.40;0.20;;;;;;;15.00;99.04;100560.06;5016920;28;20956;-48
2023/09/07 03:00:42;;;;;;;0.40;0.20;;;;;;;14.96;98.79;100558.47;5004145;28;20449;-48
2023/09/07 03:03:08;;;;;;;0.40;0.20;;;;;;;15.01;99.01;100558.28;5008573;28;20453;-49
2023/09/07 03:05:35;;;;;;;0.40;0.20;;;;;;;14.97;98.71;100556.66;5005469;28;20464;-48
2023/09/07 03:08:01;;;;;;;0.40;0.20;;;;;;;14.90;98.52;100563.19;5000887;28;20457;-48
2023/09/07 03:10:28;;;;;;;0.40;0.20;;;;;;;14.88;99.31;100557.91;5003528;28;20532;-48
2023/09/07 03:12:54;;;;;;;0.40;0.20;;;;;;;14.90;98.66;100558.72;5007406;28;20542;-48
2023/09/07 03:15:21;;;;;;;0.40;0.20;;;;;;;14.88;99.06;100554.38;5005305;28;20567;-48
2023/09/07 03:17:48;;;;;;;0.40;0.20;;;;;;;14.89;98.71;100556.09;5000974;28;20449;-48
2023/09/07 03:20:15;;;;;;;0.40;0.20;;;;;;;14.85;99.05;100557.19;5003158;28;20519;-48
2023/09/07 03:22:43;;;;;;;0.40;0.20;;;;;;;14.92;97.74;100561.31;5011797;28;20452;-48
2023/09/07 03:25:10;;;;;;;0.40;0.20;;;;;;;14.94;97.99;100559.44;5002523;28;20501;-49
2023/09/07 03:27:38;;;;;;;0.40;0.20;;;;;;;14.86;98.61;100557.13;5007762;28;20462;-48
2023/09/07 03:30:05;;;;;;;0.40;0.20;;;;;;;15.02;97.70;100560.88;5006094;28;20484;-49
2023/09/07 03:32:33;;;;;;;0.40;0.20;;;;;;;14.88;97.56;100560.59;4998078;28;20489;-49
2023/09/07 03:35:00;;;;;;;0.40;0.20;;;;;;;14.71;98.11;100553.28;4998851;28;20497;-49
2023/09/07 03:37:28;;;;;;;0.40;0.20;;;;;;;14.68;97.98;100549.88;5007703;28;20453;-50
2023/09/07 03:39:57;;;;;;;0.40;0.20;;;;;;;14.75;97.57;100549.53;5001433;28;20939;-49
2023/09/07 03:42:23;;;;;;;0.40;0.20;;;;;;;14.63;97.23;100550.03;5007396;28;20540;-49
2023/09/07 03:44:50;;;;;;;0.40;0.20;;;;;;;14.64;97.23;100546.41;5007093;28;20483;-48
2023/09/07 03:47:18;;;;;;;0.40;0.20;;;;;;;14.73;96.89;100548.72;5000550;28;21024;-49
2023/09/07 03:49:44;;;;;;;0.40;0.20;;;;;;;14.77;96.46;100560.16;5000472;28;20890;-48
2023/09/07 03:52:11;;;;;;;0.40;0.20;;;;;;;14.71;97.25;100553.28;5007181;28;20831;-48
2023/09/07 03:54:38;;;;;;;0.40;0.20;;;;;;;14.65;97.46;100558.84;5002817;28;21042;-50
2023/09/07 03:57:04;;;;;;;0.40;0.40;;;;;;;14.50;97.73;100562.16;5024706;28;20459;-48
2023/09/07 03:59:30;;;;;;;0.40;0.20;;;;;;;14.42;97.33;100554.44;5012803;28;20965;-49
2023/09/07 04:01:57;;;;;;;0.40;0.20;;;;;;;14.39;97.35;100559.00;5005446;28;20548;-48
2023/09/07 04:04:23;;;;;;;0.40;0.20;;;;;;;14.20;97.49;100561.53;5006854;28;20449;-49
2023/09/07 04:06:50;;;;;;;0.40;0.20;;;;;;;14.43;98.15;100555.31;5002042;28;20480;-48
2023/09/07 04:09:17;;;;;;;0.40;0.20;;;;;;;14.21;99.31;100556.13;5000248;28;20456;-49
2023/09/07 04:11:43;;;;;;;0.40;0.20;;;;;;;14.23;99.48;100551.59;5004883;28;20555;-48
2023/09/07 04:14:10;;;;;;;0.40;0.20;;;;;;;14.19;99.33;100546.44;4995517;28;20457;-48
2023/09/07 04:16:37;;;;;;;0.40;0.20;;;;;;;14.19;100.00;100554.47;5004294;28;20848;-49
2023/09/07 04:19:07;;;;;;;0.40;0.20;;;;;;;14.39;99.57;100554.56;5006430;28;20889;-49
2023/09/07 04:21:33;;;;;;;0.40;0.20;;;;;;;14.37;98.88;100561.75;5003092;28;20452;-48
2023/09/07 04:24:00;;;;;;;0.40;0.20;;;;;;;14.42;98.71;100556.22;5008983;28;21053;-49
2023/09/07 04:26:26;;;;;;;0.40;0.20;;;;;;;14.35;99.30;100563.63;5002670;28;20478;-48
2023/09/07 04:28:53;;;;;;;0.40;0.30;;;;;;;14.34;99.15;100567.22;5008987;28;20457;-48
2023/09/07 04:31:20;;;;;;;0.40;0.20;;;;;;;14.29;99.10;100557.66;5002503;28;20520;-48
2023/09/07 04:33:47;;;;;;;0.40;0.20;;;;;;;14.26;99.42;100558.66;4999721;28;20453;-48
2023/09/07 04:36:14;;;;;;;0.40;0.20;;;;;;;14.12;99.45;100561.88;5003019;28;20524;-49
2023/09/07 04:38:41;;;;;;;0.40;0.30;;;;;;;14.13;98.83;100560.94;4996824;28;20449;-48
2023/09/07 04:41:12;;;;;;;0.40;0.20;;;;;;;14.12;98.57;100561.00;5001997;28;20959;-48
2023/09/07 04:43:43;;;;;;;0.40;0.20;;;;;;;14.12;99.21;100558.31;5006561;28;20508;-48
2023/09/07 04:46:10;;;;;;;0.40;0.20;;;;;;;14.13;99.15;100557.38;5004399;28;20973;-48
2023/09/07 04:48:37;;;;;;;0.40;0.20;;;;;;;14.07;99.06;100565.63;4999196;28;20984;-48
2023/09/07 04:51:05;;;;;;;0.40;0.20;;;;;;;14.15;98.63;100574.25;5001281;28;20589;-48
2023/09/07 04:53:34;;;;;;;0.40;0.20;;;;;;;14.10;99.73;100569.03;5010196;28;20934;-49
2023/09/07 04:56:05;;;;;;;0.40;0.20;;;;;;;14.06;99.19;100566.56;5025201;28;20505;-49
2023/09/07 04:58:32;;;;;;;0.40;0.20;;;;;;;14.06;99.54;100567.44;5011855;28;20448;-49
2023/09/07 05:01:06;;;;;;;0.40;0.20;;;;;;;14.13;99.44;100573.44;5011231;28;20444;-49
2023/09/07 05:03:33;;;;;;;0.40;0.20;;;;;;;14.14;99.06;100580.50;4999530;28;20475;-48
2023/09/07 05:06:00;;;;;;;0.40;0.20;;;;;;;14.21;99.38;100577.53;5004045;28;20471;-48
2023/09/07 05:08:27;;;;;;;0.40;0.20;;;;;;;14.27;99.35;100572.88;5004200;28;20552;-48
2023/09/07 05:11:01;;;;;;;0.40;0.20;;;;;;;14.12;99.55;100577.03;5015331;28;20543;-48
2023/09/07 05:13:28;;;;;;;0.40;0.20;;;;;;;14.24;99.39;100579.19;5016464;28;20531;-49
2023/09/07 05:15:56;;;;;;;0.40;0.20;;;;;;;14.42;99.42;100581.19;5007301;28;20507;-49
2023/09/07 05:18:22;;;;;;;0.40;0.20;;;;;;;15.24;96.49;100586.75;5006737;28;20463;-48
2023/09/07 05:20:51;;;;;;;0.40;0.20;;;;;;;15.40;94.26;100590.50;5002995;28;20488;-48
2023/09/07 05:23:22;;;;;;;0.40;0.20;;;;;;;15.73;93.19;100589.97;5014586;28;20510;-49
2023/09/07 05:25:54;;;;;;;0.40;0.20;;;;;;;16.21;92.10;100600.28;5011011;28;20477;-48
2023/09/07 05:28:22;;;;;;;0.40;0.20;;;;;;;16.58;89.66;100592.22;5006066;28;20547;-49
2023/09/07 05:30:49;;;;;;;0.40;0.20;;;;;;;16.82;89.41;100587.47;5002498;28;20452;-48
2023/09/07 05:33:16;;;;;;;0.40;0.20;;;;;;;16.90;88.91;100591.59;5013129;28;20543;-49
2023/09/07 05:35:45;;;;;;;0.40;0.20;;;;;;;17.18;88.63;100591.94;5003283;28;20499;-50
2023/09/07 05:38:12;;;;;;;0.40;0.20;;;;;;;17.33;88.46;100593.84;5012546;28;20534;-50
2023/09/07 05:40:41;;;;;;;1.27;1.27;;;;;;;17.51;88.58;100592.00;5006504;28;20456;-51
2023/09/07 05:43:07;;;;;;;0.40;0.20;;;;;;;17.63;87.06;100601.25;5008873;28;20543;-48
2023/09/07 05:45:39;;;;;;;0.40;0.20;;;;;;;17.55;88.02;100598.13;5005840;28;20466;-48
2023/09/07 05:48:06;;;;;;;0.40;0.20;;;;;;;17.24;89.21;100604.19;5007856;28;20453;-48
2023/09/07 05:50:36;;;;;;;0.40;0.20;;;;;;;17.08;90.34;100612.16;5024351;28;20544;-48
2023/09/07 05:53:03;;;;;;;0.40;0.20;;;;;;;17.03;91.27;100608.84;5007298;28;20543;-48
2023/09/07 05:55:30;;;;;;;0.40;0.20;;;;;;;16.90;91.41;100613.97;5020211;28;20485;-48
2023/09/07 05:57:57;;;;;;;0.40;0.20;;;;;;;16.82;92.98;100618.81;5014099;28;20460;-48
2023/09/07 06:00:24;;;;;;;0.40;0.20;;;;;;;16.93;93.14;100619.16;5006629;28;20508;-47
2023/09/07 06:02:51;;;;;;;0.40;0.20;;;;;;;16.87;93.48;100624.84;5008346;28;20460;-51
2023/09/07 06:05:17;;;;;;;0.40;0.20;;;;;;;16.74;93.72;100618.34;5003749;28;20525;-51
2023/09/07 06:07:44;;;;;;;0.40;0.20;;;;;;;16.80;94.29;100615.34;5002200;28;20464;-51
2023/09/07 06:10:11;;;;;;;0.40;0.20;;;;;;;16.85;94.36;100611.47;5004081;28;20461;-50
2023/09/07 06:12:38;;;;;;;0.40;0.20;;;;;;;16.86;93.83;100607.00;5007156;28;20467;-51
2023/09/07 06:15:06;;;;;;;0.40;0.20;;;;;;;16.92;93.93;100612.06;5004399;28;20476;-48
2023/09/07 06:17:32;;;;;;;0.40;0.20;;;;;;;16.95;94.86;100611.91;5009578;28;20488;-51
2023/09/07 06:19:59;;;;;;;0.40;0.20;;;;;;;16.98;94.90;100619.78;5004219;28;20456;-51
2023/09/07 06:22:26;;;;;;;0.40;0.20;;;;;;;16.91;94.39;100609.44;5022920;28;20473;-52
2023/09/07 06:24:52;;;;;;;0.40;0.20;;;;;;;17.06;94.42;100612.25;5007302;28;20471;-52
2023/09/07 06:27:18;;;;;;;0.40;0.20;;;;;;;16.97;94.96;100614.50;5012238;28;20891;-52
2023/09/07 06:29:45;;;;;;;0.40;0.20;;;;;;;16.97;95.02;100607.31;5014770;28;20437;-52
2023/09/07 06:32:12;;;;;;;0.40;0.20;;;;;;;16.86;96.13;100618.63;5000254;28;20508;-52
2023/09/07 06:34:39;;;;;;;0.40;0.20;;;;;;;16.85;96.48;100619.53;5006458;28;20507;-51
2023/09/07 06:37:06;;;;;;;0.40;0.20;;;;;;;16.90;96.52;100618.47;5012013;28;20484;-52
2023/09/07 06:39:33;;;;;;;0.40;0.20;;;;;;;16.92;97.17;100616.56;5005622;28;20986;-51
2023/09/07 06:42:00;;;;;;;0.40;0.20;;;;;;;16.93;98.46;100618.31;5006084;28;21047;-51
2023/09/07 06:44:26;;;;;;;0.40;0.20;;;;;;;17.39;97.24;100622.22;5006920;28;20449;-51
2023/09/07 06:46:53;;;;;;;1.23;0.83;;;;;;;17.55;97.75;100619.63;5000759;28;20537;-51
2023/09/07 06:49:19;;;;;;;0.40;0.20;;;;;;;17.62;98.25;100618.34;5005523;28;20923;-51
2023/09/07 06:51:46;;;;;;;0.40;0.20;;;;;;;17.60;98.22;100625.63;5025959;28;20547;-52
2023/09/07 06:54:13;;;;;;;0.40;0.20;;;;;;;18.05;96.96;100619.63;5012955;28;20827;-50
2023/09/07 06:56:39;;;;;;;0.40;0.20;;;;;;;18.03;95.70;100622.41;5019718;28;20489;-52
2023/09/07 06:59:06;;;;;;;0.40;0.20;;;;;;;18.00;95.68;100619.91;5013938;28;20458;-52
2023/09/07 07:01:33;;;;;;;0.40;0.30;;;;;;;18.09;96.04;100625.72;5008710;28;20445;-51
2023/09/07 07:03:59;;;;;;;0.40;0.20;;;;;;;18.14;96.64;100623.66;5001632;28;20449;-51
2023/09/07 07:06:26;;;;;;;0.40;0.20;;;;;;;18.26;94.89;100631.06;5011100;28;20464;-52
2023/09/07 07:08:53;;;;;;;0.53;0.47;;;;;;;18.39;95.72;100621.38;5002222;28;20515;-51
2023/09/07 07:11:19;;;;;;;0.40;0.20;;;;;;;18.54;95.46;100623.19;5012307;28;21041;-52
2023/09/07 07:13:46;;;;;;;0.40;0.30;;;;;;;18.66;93.70;100629.75;5001841;28;20962;-51
2023/09/07 07:16:13;;;;;;;0.40;0.20;;;;;;;18.70;94.28;100625.91;5007026;28;20536;-52
2023/09/07 07:18:40;;;;;;;0.40;0.27;;;;;;;18.86;92.21;100631.28;5006648;28;20962;-52
2023/09/07 07:21:09;;;;;;;0.40;0.20;;;;;;;18.99;92.58;100628.75;5001019;28;20452;-52
2023/09/07 07:23:36;;;;;;;0.40;0.20;;;;;;;19.00;93.30;100620.59;5012459;28;20548;-50
2023/09/07 07:26:02;;;;;;;0.40;0.30;;;;;;;19.17;93.06;100624.97;5000961;28;20471;-51
2023/09/07 07:28:29;;;;;;;0.40;0.20;;;;;;;19.21;92.29;100622.03;5000548;28;20549;-52
2023/09/07 07:30:55;;;;;;;0.40;0.20;;;;;;;19.42;92.51;100616.31;5006828;28;20453;-52
2023/09/07 07:33:22;;;;;;;0.40;0.20;;;;;;;19.58;92.64;100625.25;5005573;28;20945;-51
2023/09/07 07:35:48;;;;;;;0.40;0.20;;;;;;;19.85;93.02;100627.22;5001699;28;20479;-52
2023/09/07 07:38:15;;;;;;;0.40;0.20;;;;;;;19.83;91.68;100630.03;5006451;28;20522;-51
2023/09/07 07:40:42;;;;;;;0.40;0.20;;;;;;;19.99;91.04;100632.63;4998312;28;20466;-52
2023/09/07 07:43:10;;;;;;;0.40;0.20;;;;;;;20.09;90.57;100631.97;4999993;28;20485;-52
2023/09/07 07:45:38;;;;;;;0.40;0.20;;;;;;;20.33;90.19;100634.97;5004272;28;20561;-52
2023/09/07 07:48:07;;;;;;;0.40;0.20;;;;;;;20.46;90.18;100626.13;5006897;28;20507;-52
2023/09/07 07:50:39;;;;;;;0.47;0.20;;;;;;;20.82;89.49;100625.53;5002648;28;20460;-52
2023/09/07 07:53:06;;;;;;;0.50;0.20;;;;;;;21.43;86.68;100638.56;5004502;28;20536;-52
2023/09/07 07:55:40;;;;;;;0.47;0.20;;;;;;;21.69;84.18;100627.81;5021220;28;20977;-52
2023/09/07 07:58:08;;;;;;;0.40;0.20;;;;;;;21.85;83.24;100626.63;5016281;28;20441;-52
2023/09/07 08:00:40;;;;;;;0.50;0.20;;;;;;;22.12;82.93;100628.38;5002650;28;20971;-52
2023/09/07 08:03:07;;;;;;;0.40;0.20;;;;;;;22.10;81.96;100622.22;5006897;28;20541;-53
2023/09/07 08:05:34;;;;;;;0.50;0.20;;;;;;;22.33;81.53;100621.41;5004682;28;20530;-53
2023/09/07 08:08:01;;;;;;;0.50;0.20;;;;;;;22.45;80.74;100625.09;4999869;28;20449;-52
2023/09/07 08:10:27;;;;;;;0.50;0.20;;;;;;;22.57;81.26;100626.03;5002087;28;20456;-53
2023/09/07 08:12:58;;;;;;;0.50;0.30;;;;;;;22.84;80.60;100624.03;5006454;28;20962;-51
2023/09/07 08:15:24;;;;;;;4.73;3.00;;;;;;;22.76;79.26;100630.00;5006030;28;21052;-52
2023/09/07 08:17:52;;;;;;;0.50;0.20;;;;;;;23.03;77.67;100619.00;4999653;28;21009;-51
2023/09/07 08:20:19;;;;;;;0.50;0.20;;;;;;;23.06;77.31;100620.59;5001372;28;20450;-52
2023/09/07 08:22:46;;;;;;;0.50;0.20;;;;;;;23.41;77.39;100628.75;5011577;28;20830;-52
2023/09/07 08:25:13;;;;;;;0.50;0.20;;;;;;;23.42;76.45;100618.78;5012992;28;20484;-52
2023/09/07 08:27:45;;;;;;;0.50;0.50;;;;;;;23.53;74.87;100621.53;4999904;28;20898;-52
2023/09/07 08:30:15;;;;;;;1.00;1.00;;;;;;;23.40;75.12;100612.59;4999879;28;20449;-51
2023/09/07 08:32:42;;;;;;;0.50;0.20;;;;;;;23.63;75.77;100606.31;5005827;28;20449;-51
2023/09/07 08:35:12;;;;;;;0.50;0.20;;;;;;;23.65;75.77;100609.75;5006322;28;20473;-52
2023/09/07 08:37:39;;;;;;;0.50;0.20;;;;;;;24.05;74.80;100622.91;5001212;28;20491;-52
2023/09/07 08:40:07;;;;;;;0.50;0.20;;;;;;;23.94;74.99;100613.75;4999942;28;20552;-51
2023/09/07 08:42:37;;;;;;;0.50;0.30;;;;;;;24.03;74.46;100620.31;5004583;28;20456;-52
2023/09/07 08:45:07;;;;;;;0.50;0.30;;;;;;;24.07;73.77;100616.38;5005709;28;20948;-52
2023/09/07 08:47:36;;;;;;;0.50;0.30;;;;;;;23.93;72.57;100609.31;5002532;28;20884;-51
2023/09/07 08:50:06;;;;;;;0.50;0.20;;;;;;;23.96;74.12;100608.19;4999598;28;20489;-53
2023/09/07 08:52:33;;;;;;;0.50;0.30;;;;;;;24.08;73.04;100609.06;5005121;28;20475;-52
2023/09/07 08:55:04;;;;;;;0.50;0.20;;;;;;;24.45;72.28;100613.31;5016925;28;20504;-48
2023/09/07 08:57:34;;;;;;;0.50;0.20;;;;;;;24.45;71.79;100610.59;5020367;28;20497;-53
2023/09/07 09:00:08;;;;;;;0.50;0.20;;;;;;;24.64;71.68;100614.53;5006658;28;20460;-52
2023/09/07 09:02:36;;;;;;;0.47;0.23;;;;;;;24.64;71.44;100614.53;5006144;28;20440;-53
2023/09/07 09:05:04;;;;;;;0.50;0.20;;;;;;;24.80;70.92;100606.81;5000246;28;20490;-50
2023/09/07 09:07:31;;;;;;;0.50;0.30;;;;;;;24.81;70.96;100605.84;4999228;28;20428;-50
2023/09/07 09:10:08;;;;;;;0.50;0.20;;;;;;;24.85;69.91;100601.03;5004723;28;20460;-49
2023/09/07 09:12:34;;;;;;;0.50;0.30;;;;;;;25.09;70.00;100602.59;5005633;28;20462;-53
2023/09/07 09:15:03;;;;;;;0.50;0.20;;;;;;;24.77;69.88;100597.06;5002369;28;20519;-52
2023/09/07 09:17:29;;;;;;;0.50;0.20;;;;;;;24.93;69.44;100603.94;4999084;28;20470;-52
2023/09/07 09:19:56;;;;;;;0.50;0.30;;;;;;;24.74;69.81;100605.50;5002317;28;20420;-52
2023/09/07 09:22:24;;;;;;;0.50;0.30;;;;;;;24.93;69.23;100602.09;5007468;28;20463;-52
2023/09/07 09:24:50;;;;;;;0.50;0.20;;;;;;;25.11;68.84;100594.28;5012036;28;21036;-53
2023/09/07 09:27:17;;;;;;;0.50;0.30;;;;;;;25.19;69.58;100590.91;4999067;28;20449;-50
2023/09/07 09:29:44;;;;;;;0.50;0.20;;;;;;;25.10;69.86;100592.56;5001916;28;20475;-49
2023/09/07 09:32:14;;;;;;;0.50;0.30;;;;;;;25.17;69.07;100593.75;5006308;28;20536;-49
2023/09/07 09:34:43;;;;;;;0.50;0.30;;;;;;;25.43;69.23;100596.13;5004820;28;20430;-52
2023/09/07 09:37:15;;;;;;;0.50;0.20;;;;;;;25.47;68.71;100594.84;4999244;28;20462;-49
2023/09/07 09:39:43;;;;;;;0.50;0.20;;;;;;;25.65;68.54;100588.72;4999338;28;20453;-52
2023/09/07 09:42:12;;;;;;;0.50;0.20;;;;;;;25.62;67.45;100586.22;5005560;28;20424;-51
2023/09/07 09:44:40;;;;;;;0.50;0.20;;;;;;;25.47;67.29;100582.09;5005614;28;20493;-51
2023/09/07 09:47:08;;;;;;;0.50;0.20;;;;;;;25.54;68.35;100587.91;4999319;28;20426;-48
2023/09/07 09:49:35;;;;;;;0.60;0.50;;;;;;;25.81;68.01;100576.50;4998882;28;20474;-52
2023/09/07 09:52:02;;;;;;;0.50;0.20;;;;;;;25.88;66.04;100580.41;5004572;28;20460;-52
2023/09/07 09:54:32;;;;;;;0.50;0.20;;;;;;;26.03;66.62;100580.91;5010684;28;20438;-49
2023/09/07 09:56:58;;;;;;;0.50;0.20;;;;;;;25.93;66.31;100573.56;5026973;28;20463;-48
2023/09/07 09:59:25;;;;;;;0.50;0.30;;;;;;;25.84;66.01;100574.38;5014900;28;20539;-49
2023/09/07 10:01:53;;;;;;;0.50;0.20;;;;;;;26.20;64.96;100569.38;5003746;28;20465;-49
2023/09/07 10:04:22;;;;;;;0.50;0.20;;;;;;;26.12;64.94;100577.38;5002263;28;20427;-51
2023/09/07 10:07:01;;;;;;;0.50;0.20;;;;;;;26.24;65.54;100565.38;5007335;28;20444;-52
2023/09/07 10:09:38;;;;;;;0.50;0.20;;;;;;;26.43;64.78;100565.47;5008978;28;20459;-53
2023/09/07 10:12:08;;;;;;;15.03;4.23;;;;;;;26.26;64.08;100566.97;5006838;28;20454;-52
2023/09/07 10:14:39;;;;;;;0.50;0.23;;;;;;;26.44;63.98;100566.31;5002000;28;20465;-52
2023/09/07 10:17:06;;;;;;;0.50;0.20;;;;;;;26.58;63.52;100561.34;5003214;28;21286;-51
2023/09/07 10:19:36;;;;;;;0.50;0.30;;;;;;;26.77;62.51;100559.66;5008972;28;20493;-52
2023/09/07 10:22:03;;;;;;;0.50;0.30;;;;;;;26.66;61.86;100562.50;5008342;28;20456;-52
2023/09/07 10:24:35;;;;;;;0.50;0.20;;;;;;;26.61;62.26;100562.94;5015209;28;20427;-52
2023/09/07 10:27:04;;;;;;;0.50;0.20;;;;;;;26.87;62.16;100552.38;5002136;28;20449;-51
2023/09/07 10:30:00;;;;;;;0.50;0.20;;;;;;;26.80;62.06;100551.19;5007814;28;20450;-53
2023/09/07 10:32:38;;;;;;;0.50;0.20;;;;;;;26.83;62.84;100543.59;5004002;28;20436;-53
2023/09/07 10:35:12;;;;;;;0.50;0.30;;;;;;;26.74;61.80;100554.50;5009780;28;20475;-52
2023/09/07 10:37:39;;;;;;;0.50;0.23;;;;;;;26.72;62.63;100546.44;5003090;28;20476;-52
2023/09/07 10:40:11;;;;;;;0.50;0.20;;;;;;;26.80;62.64;100534.81;5001510;28;20453;-48
2023/09/07 10:42:38;;;;;;;0.50;0.20;;;;;;;27.18;61.11;100535.88;5006437;28;20465;-48
2023/09/07 10:45:12;;;;;;;0.50;0.30;;;;;;;27.14;61.60;100540.78;5008193;28;20888;-49
2023/09/07 10:47:43;;;;;;;0.50;0.20;;;;;;;27.15;61.12;100534.31;5004759;28;20945;-53
2023/09/07 10:50:12;;;;;;;0.50;0.30;;;;;;;26.97;60.42;100536.84;5001537;28;20449;-49
2023/09/07 10:52:43;;;;;;;0.50;0.20;;;;;;;27.49;60.11;100525.63;5008021;28;20539;-49
2023/09/07 10:55:11;;;;;;;0.50;0.20;;;;;;;27.33;60.07;100526.25;5020246;28;20546;-49
2023/09/07 10:57:46;;;;;;;0.50;0.20;;;;;;;27.42;60.68;100530.84;5021424;28;20484;-50
2023/09/07 11:00:14;;;;;;;0.50;0.20;;;;;;;27.56;57.67;100532.25;5007440;28;20521;-49
2023/09/07 11:02:43;;;;;;;0.50;0.20;;;;;;;27.55;57.96;100525.03;5007933;28;20423;-49
2023/09/07 11:05:10;;;;;;;0.50;0.30;;;;;;;27.55;59.08;100528.66;5002622;28;20996;-49
2023/09/07 11:07:37;;;;;;;0.50;0.23;;;;;;;27.36;58.16;100526.78;5001133;28;20446;-49
2023/09/07 11:10:07;;;;;;;0.50;0.20;;;;;;;27.77;58.01;100521.13;5006176;28;20459;-49
2023/09/07 11:12:38;;;;;;;0.57;0.50;;;;;;;28.13;57.25;100539.41;5010014;28;20514;-52
2023/09/07 11:15:05;;;;;;;0.50;0.30;;;;;;;28.39;55.35;100519.59;5004231;28;20476;-49
2023/09/07 11:17:31;;;;;;;0.50;0.20;;;;;;;28.11;56.59;100526.91;5000306;28;20546;-49
2023/09/07 11:19:58;;;;;;;0.50;0.30;;;;;;;28.05;57.34;100517.44;5004412;28;20453;-49
2023/09/07 11:22:24;;;;;;;1.47;0.63;;;;;;;28.38;56.63;100513.28;4997789;28;20453;-49
2023/09/07 11:24:51;;;;;;;0.50;0.20;;;;;;;28.15;55.79;100523.72;5004723;28;20489;-48
2023/09/07 11:27:18;;;;;;;0.50;0.20;;;;;;;28.01;55.51;100516.88;5012621;28;20548;-49